createdAt,value
2023-03-03T00:01:03.089Z,76.72
2023-03-03T00:03:30.694Z,76.55
2023-03-03T00:05:58.264Z,76.36
2023-03-03T00:08:25.707Z,75.99
2023-03-03T00:10:55.505Z,75.79
2023-03-03T00:13:23.027Z,75.67
2023-03-03T00:15:50.714Z,75.46
2023-03-03T00:18:18.306Z,75.13
2023-03-03T00:20:46.075Z,74.96
2023-03-03T00:23:13.530Z,74.90
2023-03-03T00:25:41.007Z,75.02
2023-03-03T00:28:08.511Z,75.70
2023-03-03T00:30:35.972Z,75.80
2023-03-03T00:33:03.441Z,75.70
2023-03-03T00:35:31.575Z,75.63
2023-03-03T00:37:59.810Z,75.67
2023-03-03T00:40:27.383Z,75.71
2023-03-03T00:42:54.874Z,75.75
2023-03-03T00:45:22.731Z,75.78
2023-03-03T00:47:50.238Z,75.96
2023-03-03T00:50:17.869Z,76.17
2023-03-03T00:52:45.515Z,76.58
2023-03-03T00:55:12.975Z,76.74
2023-03-03T00:57:40.448Z,76.45
2023-03-03T01:00:07.910Z,76.25
2023-03-03T01:02:35.428Z,76.36
2023-03-03T01:05:03.061Z,76.58
2023-03-03T01:07:30.532Z,76.44
2023-03-03T01:09:57.988Z,76.48
2023-03-03T01:12:25.520Z,76.41
2023-03-03T01:14:54.893Z,76.51
2023-03-03T01:17:22.509Z,76.84
2023-03-03T01:19:50.083Z,77.13
2023-03-03T01:22:17.573Z,77.14
2023-03-03T01:24:45.134Z,77.28
2023-03-03T01:27:12.796Z,77.24
2023-03-03T01:29:40.273Z,77.06
2023-03-03T01:32:07.769Z,76.87
2023-03-03T01:34:35.260Z,76.98
2023-03-03T01:37:02.915Z,76.94
2023-03-03T01:39:30.370Z,76.94
2023-03-03T01:41:58.116Z,76.90
2023-03-03T01:44:25.562Z,76.86
2023-03-03T01:46:53.137Z,77.12
2023-03-03T01:49:20.596Z,77.27
2023-03-03T01:51:48.099Z,77.12
2023-03-03T01:54:15.580Z,77.07
2023-03-03T01:56:43.098Z,76.99
2023-03-03T01:59:10.567Z,76.84
2023-03-03T02:01:38.094Z,76.84
2023-03-03T02:04:05.655Z,76.86
2023-03-03T02:06:33.110Z,76.92
2023-03-03T02:09:00.529Z,76.74
2023-03-03T02:11:28.184Z,76.86
2023-03-03T02:13:55.697Z,76.69
2023-03-03T02:16:23.155Z,76.99
2023-03-03T02:18:50.850Z,77.24
2023-03-03T02:21:18.329Z,77.33
2023-03-03T02:23:45.863Z,77.51
2023-03-03T02:26:13.341Z,77.33
2023-03-03T02:28:40.815Z,77.21
2023-03-03T02:31:08.370Z,77.19
2023-03-03T02:33:36.021Z,77.10
2023-03-03T02:36:03.511Z,77.08
2023-03-03T02:38:31.143Z,77.14
2023-03-03T02:40:58.613Z,77.48
2023-03-03T02:43:26.196Z,77.67
2023-03-03T02:45:53.780Z,77.80
2023-03-03T02:48:21.274Z,77.64
2023-03-03T02:50:48.719Z,77.94
2023-03-03T02:53:16.189Z,78.17
2023-03-03T02:55:43.872Z,77.99
2023-03-03T02:58:11.460Z,77.71
2023-03-03T03:00:38.996Z,77.55
2023-03-03T03:03:06.524Z,77.36
2023-03-03T03:05:34.023Z,77.35
2023-03-03T03:08:01.498Z,77.68
2023-03-03T03:10:28.996Z,77.97
2023-03-03T03:12:56.523Z,77.95
2023-03-03T03:15:23.985Z,78.10
2023-03-03T03:17:51.692Z,78.36
2023-03-03T03:20:19.297Z,78.36
2023-03-03T03:22:46.727Z,78.40
2023-03-03T03:25:14.218Z,78.48
2023-03-03T03:27:41.669Z,78.28
2023-03-03T03:30:09.190Z,78.22
2023-03-03T03:32:36.749Z,78.43
2023-03-03T03:35:04.198Z,78.88
2023-03-03T03:37:31.948Z,79.01
2023-03-03T03:39:59.607Z,79.13
2023-03-03T03:42:27.036Z,78.95
2023-03-03T03:44:54.516Z,78.92
2023-03-03T03:47:22.007Z,78.69
2023-03-03T03:49:49.432Z,78.58
2023-03-03T03:52:16.916Z,78.28
2023-03-03T03:54:44.372Z,78.32
2023-03-03T03:57:11.888Z,78.28
2023-03-03T03:59:39.336Z,78.49
2023-03-03T04:02:06.904Z,78.60
2023-03-03T04:04:34.502Z,78.49
2023-03-03T04:07:02.005Z,78.68
2023-03-03T04:09:29.644Z,78.79
2023-03-03T04:11:57.234Z,79.19
2023-03-03T04:14:24.715Z,79.50
2023-03-03T04:16:52.179Z,79.51
2023-03-03T04:19:19.642Z,79.29
2023-03-03T04:21:47.265Z,79.14
2023-03-03T04:24:14.726Z,79.60
2023-03-03T04:26:42.205Z,79.65
2023-03-03T04:29:09.785Z,79.58
2023-03-03T04:31:37.340Z,79.51
2023-03-03T04:34:04.811Z,79.39
2023-03-03T04:36:32.250Z,79.22
2023-03-03T04:38:59.980Z,79.06
2023-03-03T04:41:27.447Z,78.78
2023-03-03T04:43:54.912Z,78.56
2023-03-03T04:46:22.563Z,78.70
2023-03-03T04:48:50.133Z,78.52
2023-03-03T04:51:18.693Z,78.30
2023-03-03T04:53:46.189Z,78.16
2023-03-03T04:56:13.618Z,78.15
2023-03-03T04:58:41.072Z,78.35
2023-03-03T05:01:08.568Z,78.40
2023-03-03T05:03:36.098Z,78.39
2023-03-03T05:06:03.696Z,78.32
2023-03-03T05:08:31.201Z,78.30
2023-03-03T05:10:59.848Z,78.35
2023-03-03T05:13:27.292Z,78.33
2023-03-03T05:15:57.683Z,78.51
2023-03-03T05:18:25.482Z,78.66
2023-03-03T05:20:52.974Z,78.69
2023-03-03T05:23:21.172Z,78.56
2023-03-03T05:25:48.682Z,78.27
2023-03-03T05:28:16.188Z,78.31
2023-03-03T05:30:43.672Z,78.45
2023-03-03T05:33:11.532Z,78.37
2023-03-03T05:35:39.028Z,78.49
2023-03-03T05:38:06.595Z,78.67
2023-03-03T05:40:34.276Z,79.19
2023-03-03T05:43:01.890Z,79.34
2023-03-03T05:45:29.442Z,79.48
2023-03-03T05:47:56.897Z,79.37
2023-03-03T05:50:24.359Z,79.32
2023-03-03T05:52:52.070Z,79.34
2023-03-03T05:55:19.573Z,79.41
2023-03-03T05:57:47.108Z,79.63
2023-03-03T06:00:14.607Z,79.86
2023-03-03T06:02:42.106Z,80.14
2023-03-03T06:05:10.289Z,80.13
2023-03-03T06:07:37.782Z,80.15
2023-03-03T06:10:05.363Z,80.45
2023-03-03T06:12:32.863Z,80.43
2023-03-03T06:15:00.364Z,80.35
2023-03-03T06:17:27.848Z,80.08
2023-03-03T06:19:55.322Z,80.24
2023-03-03T06:22:22.825Z,80.48
2023-03-03T06:24:50.509Z,80.61
2023-03-03T06:27:18.058Z,80.79
2023-03-03T06:29:45.589Z,81.02
2023-03-03T06:32:13.199Z,81.09
2023-03-03T06:34:40.782Z,80.99
2023-03-03T06:37:08.284Z,81.09
2023-03-03T06:39:35.741Z,81.04
2023-03-03T06:42:03.168Z,81.12
2023-03-03T06:44:30.888Z,81.54
2023-03-03T06:46:58.902Z,81.86
2023-03-03T06:49:26.356Z,81.54
2023-03-03T06:51:54.148Z,81.99
2023-03-03T06:54:21.620Z,82.29
2023-03-03T06:56:49.115Z,82.29
2023-03-03T06:59:16.680Z,82.37
2023-03-03T07:01:44.195Z,82.31
2023-03-03T07:04:11.682Z,82.48
2023-03-03T07:06:39.258Z,82.50
2023-03-03T07:09:09.166Z,82.46
2023-03-03T07:11:39.694Z,82.44
2023-03-03T07:14:07.198Z,82.44
2023-03-03T07:16:34.651Z,82.40
2023-03-03T07:19:03.568Z,82.40
2023-03-03T07:21:31.359Z,82.39
2023-03-03T07:23:58.814Z,82.37
2023-03-03T07:26:28.794Z,82.48
2023-03-03T07:28:56.407Z,82.52
2023-03-03T07:31:23.871Z,82.62
2023-03-03T07:33:51.308Z,82.59
2023-03-03T07:36:18.815Z,82.42
2023-03-03T07:38:46.267Z,82.58
2023-03-03T07:41:13.728Z,82.68
2023-03-03T07:43:41.491Z,82.82
2023-03-03T07:46:08.949Z,82.90
2023-03-03T07:48:36.613Z,82.98
2023-03-03T07:51:04.103Z,82.96
2023-03-03T07:53:34.968Z,82.79
2023-03-03T07:56:02.468Z,82.61
2023-03-03T07:58:29.988Z,82.29
2023-03-03T08:00:57.460Z,81.84
2023-03-03T08:03:25.216Z,81.30
2023-03-03T08:05:52.758Z,81.20
2023-03-03T08:08:20.290Z,80.93
2023-03-03T08:10:48.378Z,80.71
2023-03-03T08:13:15.922Z,80.57
2023-03-03T08:15:43.773Z,80.57
2023-03-03T08:18:11.248Z,80.05
2023-03-03T08:20:38.721Z,80.00
2023-03-03T08:23:06.145Z,80.05
2023-03-03T08:25:33.702Z,79.96
2023-03-03T08:28:01.444Z,79.79
2023-03-03T08:30:28.992Z,79.62
2023-03-03T08:32:56.520Z,78.91
2023-03-03T08:35:24.188Z,78.29
2023-03-03T08:37:51.762Z,77.74
2023-03-03T08:40:19.236Z,77.14
2023-03-03T08:42:47.185Z,77.16
2023-03-03T08:45:14.654Z,77.16
2023-03-03T08:47:43.315Z,76.96
2023-03-03T08:50:11.102Z,77.14
2023-03-03T08:52:38.534Z,77.38
2023-03-03T08:55:07.682Z,77.11
2023-03-03T08:57:36.285Z,76.60
2023-03-03T09:00:04.056Z,76.55
2023-03-03T09:02:31.532Z,76.69
2023-03-03T09:04:59.072Z,76.42
2023-03-03T09:07:26.525Z,76.33
2023-03-03T09:09:54.018Z,75.91
2023-03-03T09:12:21.619Z,75.78
2023-03-03T09:14:49.061Z,75.45
2023-03-03T09:17:16.488Z,75.09
2023-03-03T09:19:45.429Z,74.52
2023-03-03T09:22:12.946Z,74.22
2023-03-03T09:24:40.372Z,74.66
2023-03-03T09:27:08.010Z,74.67
2023-03-03T09:29:35.698Z,74.88
2023-03-03T09:32:03.342Z,74.19
2023-03-03T09:34:31.238Z,74.32
2023-03-03T09:37:00.187Z,74.25
2023-03-03T09:39:27.719Z,74.78
2023-03-03T09:41:55.277Z,75.15
2023-03-03T09:44:22.728Z,74.51
2023-03-03T09:46:50.286Z,74.00
2023-03-03T09:49:17.922Z,74.27
2023-03-03T09:51:45.398Z,74.13
2023-03-03T09:54:12.949Z,72.37
2023-03-03T09:56:42.487Z,71.84
2023-03-03T09:59:09.988Z,71.87
2023-03-03T10:01:37.476Z,72.06
2023-03-03T10:04:05.685Z,71.33
2023-03-03T10:06:33.271Z,70.93
2023-03-03T10:09:00.751Z,71.04
2023-03-03T10:11:28.460Z,70.53
2023-03-03T10:13:55.934Z,70.47
2023-03-03T10:16:23.433Z,70.48
2023-03-03T10:18:53.034Z,70.23
2023-03-03T10:21:20.775Z,69.57
2023-03-03T10:23:48.567Z,68.82
2023-03-03T10:26:16.543Z,68.41
2023-03-03T10:28:44.066Z,68.75
2023-03-03T10:31:15.570Z,69.33
2023-03-03T10:33:45.424Z,69.72
2023-03-03T10:36:13.239Z,69.09
2023-03-03T10:38:40.751Z,68.39
2023-03-03T10:41:08.396Z,68.54
2023-03-03T10:43:36.030Z,69.32
2023-03-03T10:46:03.848Z,68.67
2023-03-03T10:48:31.714Z,67.75
2023-03-03T10:50:59.154Z,66.46
2023-03-03T10:53:26.731Z,66.94
2023-03-03T10:55:54.735Z,66.73
2023-03-03T10:58:22.226Z,66.12
2023-03-03T11:00:49.683Z,66.67
2023-03-03T11:03:17.227Z,67.14
2023-03-03T11:05:44.682Z,66.62
2023-03-03T11:08:12.169Z,66.11
2023-03-03T11:10:39.698Z,67.12
2023-03-03T11:13:11.071Z,67.60
2023-03-03T11:15:38.867Z,67.44
2023-03-03T11:18:06.330Z,67.97
2023-03-03T11:20:33.755Z,67.74
2023-03-03T11:23:01.397Z,67.34
2023-03-03T11:25:29.163Z,67.93
2023-03-03T11:27:56.646Z,67.25
2023-03-03T11:30:24.129Z,66.93
2023-03-03T11:32:51.811Z,67.36
2023-03-03T11:35:19.379Z,66.48
2023-03-03T11:37:46.913Z,66.89
2023-03-03T11:40:14.422Z,67.43
2023-03-03T11:42:42.111Z,66.80
2023-03-03T11:45:09.612Z,65.73
2023-03-03T11:47:37.069Z,65.89
2023-03-03T11:50:04.566Z,66.53
2023-03-03T11:52:32.053Z,65.87
2023-03-03T11:54:59.561Z,65.49
2023-03-03T11:57:27.002Z,66.07
2023-03-03T11:59:54.800Z,65.56
2023-03-03T12:02:22.426Z,63.93
2023-03-03T12:04:50.063Z,64.24
2023-03-03T12:07:19.481Z,65.14
2023-03-03T12:09:47.454Z,64.24
2023-03-03T12:12:15.245Z,63.63
2023-03-03T12:14:42.828Z,63.41
2023-03-03T12:17:10.348Z,65.23
2023-03-03T12:19:37.783Z,66.52
2023-03-03T12:22:05.256Z,65.51
2023-03-03T12:24:32.767Z,63.76
2023-03-03T12:27:00.504Z,62.26
2023-03-03T12:29:29.302Z,62.87
2023-03-03T12:31:56.821Z,62.56
2023-03-03T12:34:24.504Z,62.05
2023-03-03T12:36:51.976Z,61.84
2023-03-03T12:39:33.787Z,61.09
2023-03-03T12:42:04.432Z,61.94
2023-03-03T12:44:32.818Z,62.41
2023-03-03T12:47:03.152Z,61.81
2023-03-03T12:49:51.976Z,61.83
2023-03-03T12:52:24.355Z,62.41
2023-03-03T12:54:53.647Z,62.40
2023-03-03T12:57:23.880Z,61.31
2023-03-03T12:59:52.193Z,62.18
2023-03-03T13:02:19.831Z,62.61
2023-03-03T13:04:56.338Z,62.68
2023-03-03T13:07:26.343Z,62.19
2023-03-03T13:09:53.855Z,60.70
2023-03-03T13:12:21.433Z,59.47
2023-03-03T13:14:48.951Z,59.55
2023-03-03T13:17:16.684Z,58.13
2023-03-03T13:19:44.208Z,58.20
2023-03-03T13:22:11.735Z,59.06
2023-03-03T13:24:41.124Z,58.91
2023-03-03T13:27:10.823Z,58.47
2023-03-03T13:29:38.379Z,57.83
2023-03-03T13:32:05.956Z,58.42
2023-03-03T13:34:33.581Z,58.46
2023-03-03T13:37:01.149Z,57.35
2023-03-03T13:39:28.743Z,58.60
2023-03-03T13:41:57.062Z,58.26
2023-03-03T13:44:24.576Z,60.42
2023-03-03T13:46:52.071Z,61.84
2023-03-03T13:49:19.597Z,61.03
2023-03-03T13:51:47.271Z,61.56
2023-03-03T13:54:14.733Z,61.90
2023-03-03T13:56:42.227Z,61.89
2023-03-03T13:59:09.712Z,61.18
2023-03-03T14:01:37.196Z,62.18
2023-03-03T14:04:04.679Z,61.63
2023-03-03T14:06:32.279Z,61.85
2023-03-03T14:08:59.789Z,61.13
2023-03-03T14:11:29.700Z,61.67
2023-03-03T14:13:57.251Z,62.87
2023-03-03T14:16:24.751Z,63.90
2023-03-03T14:18:52.237Z,64.25
2023-03-03T14:21:19.683Z,64.57
2023-03-03T14:23:47.191Z,64.42
2023-03-03T14:26:15.549Z,63.38
2023-03-03T14:28:44.153Z,61.96
2023-03-03T14:31:11.717Z,61.13
2023-03-03T14:33:39.201Z,61.91
2023-03-03T14:36:07.291Z,61.95
2023-03-03T14:38:34.758Z,61.71
2023-03-03T14:41:02.381Z,60.65
2023-03-03T14:43:30.256Z,61.23
2023-03-03T14:45:57.746Z,61.42
2023-03-03T14:48:25.340Z,61.75
2023-03-03T14:50:52.900Z,62.30
2023-03-03T14:53:20.373Z,63.15
2023-03-03T14:55:47.961Z,63.41
2023-03-03T14:58:15.539Z,63.75
2023-03-03T15:00:43.081Z,63.68
2023-03-03T15:03:11.110Z,64.47
2023-03-03T15:05:38.823Z,64.49
2023-03-03T15:08:06.281Z,64.27
2023-03-03T15:10:33.784Z,64.39
2023-03-03T15:13:01.451Z,64.57
2023-03-03T15:15:29.941Z,65.04
2023-03-03T15:18:03.594Z,65.24
2023-03-03T15:20:32.424Z,65.40
2023-03-03T15:23:00.941Z,65.09
2023-03-03T15:25:42.253Z,65.62
2023-03-03T15:28:10.664Z,66.09
2023-03-03T15:30:38.153Z,65.69
2023-03-03T15:33:05.937Z,66.52
2023-03-03T15:35:33.524Z,67.26
2023-03-03T15:38:01.042Z,67.88
2023-03-03T15:40:28.588Z,68.29
2023-03-03T15:42:56.239Z,68.70
2023-03-03T15:45:23.810Z,68.84
2023-03-03T15:47:51.332Z,69.12
2023-03-03T15:50:18.784Z,69.26
2023-03-03T15:52:46.465Z,69.28
2023-03-03T15:55:13.914Z,69.51
2023-03-03T15:57:41.694Z,69.74
2023-03-03T16:00:09.217Z,69.99
2023-03-03T16:02:36.732Z,70.05
2023-03-03T16:05:04.245Z,70.34
2023-03-03T16:07:32.197Z,70.64
2023-03-03T16:09:59.636Z,70.94
2023-03-03T16:12:27.308Z,71.37
2023-03-03T16:14:55.319Z,71.62
2023-03-03T16:17:22.797Z,72.17
2023-03-03T16:19:50.329Z,72.58
2023-03-03T16:22:17.999Z,72.93
2023-03-03T16:24:45.548Z,72.41
2023-03-03T16:27:12.995Z,72.26
2023-03-03T16:29:40.467Z,73.02
2023-03-03T16:32:07.967Z,72.82
2023-03-03T16:34:35.514Z,72.86
2023-03-03T16:37:03.082Z,73.04
2023-03-03T16:39:31.053Z,72.84
2023-03-03T16:41:58.539Z,72.79
2023-03-03T16:44:28.118Z,73.43
2023-03-03T16:46:57.494Z,73.92
2023-03-03T16:49:25.073Z,74.59
2023-03-03T16:51:52.568Z,74.81
2023-03-03T16:54:20.061Z,75.04
2023-03-03T16:56:48.229Z,75.48
2023-03-03T16:59:15.715Z,76.54
2023-03-03T17:01:43.153Z,77.31
2023-03-03T17:04:10.588Z,77.91
2023-03-03T17:06:41.093Z,77.68
2023-03-03T17:09:08.572Z,77.61
2023-03-03T17:11:36.145Z,77.55
2023-03-03T17:14:03.645Z,77.93
2023-03-03T17:16:42.674Z,77.82
2023-03-03T17:19:17.487Z,78.23
2023-03-03T17:21:44.917Z,78.57
2023-03-03T17:24:12.407Z,79.09
2023-03-03T17:26:40.021Z,79.57
2023-03-03T17:29:09.034Z,79.31
2023-03-03T17:31:36.827Z,79.27
2023-03-03T17:34:04.348Z,79.07
2023-03-03T17:36:31.855Z,79.23
2023-03-03T17:38:59.329Z,78.88
2023-03-03T17:41:26.817Z,78.91
2023-03-03T17:43:54.303Z,78.96
2023-03-03T17:46:21.767Z,78.90
2023-03-03T17:48:49.416Z,79.18
2023-03-03T17:51:16.911Z,79.51
2023-03-03T17:53:44.348Z,80.09
2023-03-03T17:56:11.843Z,80.04
2023-03-03T17:58:42.836Z,80.44
2023-03-03T18:01:10.314Z,80.40
2023-03-03T18:03:37.889Z,80.08
2023-03-03T18:06:06.282Z,80.12
2023-03-03T18:08:33.754Z,80.48
2023-03-03T18:11:01.329Z,80.73
2023-03-03T18:13:28.974Z,80.67
2023-03-03T18:16:10.860Z,81.10
2023-03-03T18:18:39.028Z,81.33
2023-03-03T18:21:06.630Z,81.31
2023-03-03T18:23:35.156Z,81.61
2023-03-03T18:26:02.940Z,81.69
2023-03-03T18:28:30.389Z,81.77
2023-03-03T18:30:58.062Z,81.84
2023-03-03T18:33:25.759Z,81.94
2023-03-03T18:35:53.220Z,82.12
2023-03-03T18:38:20.826Z,82.36
2023-03-03T18:40:51.042Z,82.54
2023-03-03T18:43:18.661Z,82.48
2023-03-03T18:45:46.479Z,82.13
2023-03-03T18:48:14.067Z,82.23
2023-03-03T18:50:41.586Z,82.63
2023-03-03T18:53:09.075Z,82.98
2023-03-03T18:55:36.554Z,83.06
2023-03-03T18:58:04.053Z,83.11
2023-03-03T19:00:31.820Z,82.92
2023-03-03T19:02:59.426Z,83.01
2023-03-03T19:05:28.844Z,83.21
2023-03-03T19:07:56.328Z,83.39
2023-03-03T19:10:23.907Z,83.59
2023-03-03T19:12:54.344Z,83.69
2023-03-03T19:15:22.007Z,83.67
2023-03-03T19:17:49.934Z,83.79
2023-03-03T19:20:18.418Z,83.87
2023-03-03T19:22:46.198Z,83.67
2023-03-03T19:25:13.756Z,83.57
2023-03-03T19:27:41.211Z,83.60
2023-03-03T19:30:08.656Z,83.55
2023-03-03T19:32:36.227Z,83.30
2023-03-03T19:35:03.799Z,83.36
2023-03-03T19:37:31.333Z,83.40
2023-03-03T19:40:00.963Z,83.39
2023-03-03T19:42:28.459Z,83.29
2023-03-03T19:44:56.878Z,83.29
2023-03-03T19:47:24.539Z,83.38
2023-03-03T19:49:52.396Z,83.38
2023-03-03T19:52:21.201Z,83.12
2023-03-03T19:54:48.670Z,82.70
2023-03-03T19:57:16.371Z,82.60
2023-03-03T19:59:44.923Z,82.60
2023-03-03T20:02:13.148Z,82.71
2023-03-03T20:04:40.699Z,83.07
2023-03-03T20:07:08.699Z,83.22
2023-03-03T20:09:36.536Z,83.20
2023-03-03T20:12:04.451Z,83.17
2023-03-03T20:14:32.671Z,83.22
2023-03-03T20:17:00.388Z,83.29
2023-03-03T20:19:28.186Z,83.18
2023-03-03T20:21:56.305Z,83.28
2023-03-03T20:24:24.871Z,83.28
2023-03-03T20:26:52.379Z,83.11
2023-03-03T20:29:19.905Z,83.10
2023-03-03T20:31:47.550Z,83.12
2023-03-03T20:34:15.206Z,83.17
2023-03-03T20:36:42.777Z,83.11
2023-03-03T20:39:10.975Z,83.19
2023-03-03T20:41:38.600Z,83.42
2023-03-03T20:44:06.272Z,83.63
2023-03-03T20:46:34.258Z,83.72
2023-03-03T20:49:01.794Z,84.01
2023-03-03T20:51:29.779Z,84.09
2023-03-03T20:53:57.314Z,84.17
2023-03-03T20:56:24.837Z,84.10
2023-03-03T20:58:52.366Z,84.08
2023-03-03T21:01:19.993Z,84.19
2023-03-03T21:03:47.671Z,84.32
2023-03-03T21:06:15.807Z,84.49
2023-03-03T21:08:43.333Z,84.54
2023-03-03T21:11:13.442Z,84.54
2023-03-03T21:13:41.306Z,84.54
2023-03-03T21:16:08.898Z,84.67
2023-03-03T21:18:36.415Z,84.66
2023-03-03T21:21:03.973Z,84.75
2023-03-03T21:23:31.680Z,84.81
2023-03-03T21:25:59.266Z,84.76
2023-03-03T21:28:26.745Z,84.81
2023-03-03T21:30:54.275Z,85.06
2023-03-03T21:33:21.740Z,85.33
2023-03-03T21:35:49.207Z,85.48
2023-03-03T21:38:16.867Z,85.54
2023-03-03T21:40:44.537Z,85.80
2023-03-03T21:43:12.062Z,86.10
2023-03-03T21:45:41.378Z,86.21
2023-03-03T21:48:08.891Z,86.07
2023-03-03T21:50:36.375Z,86.11
2023-03-03T21:53:03.909Z,86.36
2023-03-03T21:55:31.356Z,86.66
2023-03-03T21:57:58.867Z,86.90
2023-03-03T22:00:26.428Z,87.17
2023-03-03T22:02:55.319Z,87.34
2023-03-03T22:05:23.175Z,87.27
2023-03-03T22:07:50.679Z,87.31
2023-03-03T22:10:18.143Z,87.25
2023-03-03T22:12:45.806Z,87.23
2023-03-03T22:15:13.510Z,87.14
2023-03-03T22:17:40.976Z,87.30
2023-03-03T22:20:08.398Z,87.63
2023-03-03T22:22:35.920Z,87.71
2023-03-03T22:25:03.591Z,87.78
2023-03-03T22:27:31.081Z,87.87
2023-03-03T22:29:58.589Z,87.90
2023-03-03T22:32:26.516Z,87.89
2023-03-03T22:34:53.970Z,87.87
2023-03-03T22:37:21.560Z,87.90
2023-03-03T22:39:49.010Z,87.88
2023-03-03T22:42:16.486Z,87.85
2023-03-03T22:44:45.902Z,87.70
2023-03-03T22:47:13.554Z,87.66
2023-03-03T22:49:41.017Z,87.55
2023-03-03T22:52:08.528Z,87.47
2023-03-03T22:54:35.964Z,87.50
2023-03-03T22:57:03.428Z,87.63
2023-03-03T22:59:32.701Z,87.96
2023-03-03T23:02:00.730Z,88.04
2023-03-03T23:04:28.569Z,87.87
2023-03-03T23:06:57.276Z,87.93
2023-03-03T23:09:24.701Z,87.87
2023-03-03T23:11:52.284Z,87.80
2023-03-03T23:14:19.938Z,87.69
2023-03-03T23:16:47.473Z,87.77
2023-03-03T23:19:14.894Z,87.80
2023-03-03T23:21:42.396Z,87.89
2023-03-03T23:24:11.138Z,88.00
2023-03-03T23:26:38.793Z,87.96
2023-03-03T23:29:06.317Z,87.87
2023-03-03T23:31:33.995Z,87.83
2023-03-03T23:34:01.588Z,87.84
2023-03-03T23:36:29.116Z,87.80
2023-03-03T23:38:56.550Z,87.82
2023-03-03T23:41:23.969Z,87.80
2023-03-03T23:43:51.476Z,87.72
2023-03-03T23:46:18.955Z,87.70
2023-03-03T23:48:46.432Z,87.61
2023-03-03T23:51:13.935Z,87.60
2023-03-03T23:53:41.369Z,87.61
2023-03-03T23:56:08.839Z,87.66
2023-03-03T23:58:36.303Z,87.61
